createdAt,value
2019-01-27T00:00:08.850Z,12.50
2019-01-27T00:05:16.746Z,13.80
2019-01-27T00:10:24.035Z,17.00
2019-01-27T00:15:33.605Z,13.27
2019-01-27T00:20:42.461Z,11.57
2019-01-27T00:25:50.024Z,13.30
2019-01-27T00:30:59.409Z,12.93
2019-01-27T00:36:08.783Z,12.27
2019-01-27T00:41:15.114Z,11.77
2019-01-27T00:46:22.909Z,11.70
2019-01-27T00:51:29.801Z,7.30
2019-01-27T00:56:36.844Z,13.90
2019-01-27T01:01:45.034Z,10.70
2019-01-27T01:06:51.690Z,11.13
2019-01-27T01:11:58.831Z,10.77
2019-01-27T01:17:05.262Z,9.67
2019-01-27T01:22:14.046Z,12.10
2019-01-27T01:27:21.822Z,10.77
2019-01-27T01:32:28.061Z,15.10
2019-01-27T01:37:35.270Z,14.30
2019-01-27T01:42:43.938Z,11.97
2019-01-27T01:47:52.792Z,12.70
2019-01-27T01:52:59.318Z,11.37
2019-01-27T01:58:07.406Z,10.03
2019-01-27T02:03:16.564Z,11.47
2019-01-27T02:08:23.699Z,10.30
2019-01-27T02:13:33.454Z,9.37
2019-01-27T02:18:46.399Z,11.20
2019-01-27T02:23:53.963Z,12.20
2019-01-27T02:29:01.458Z,11.23
2019-01-27T02:34:07.903Z,8.70
2019-01-27T02:39:15.047Z,11.60
2019-01-27T02:44:21.795Z,10.10
2019-01-27T02:49:28.744Z,10.83
2019-01-27T02:54:35.322Z,9.20
2019-01-27T02:59:44.672Z,9.67
2019-01-27T03:04:50.954Z,7.60
2019-01-27T03:09:58.638Z,8.90
2019-01-27T03:15:06.052Z,7.30
2019-01-27T03:20:15.452Z,7.67
2019-01-27T03:25:24.473Z,7.23
2019-01-27T03:30:34.363Z,9.70
2019-01-27T03:35:43.087Z,10.23
2019-01-27T03:40:49.792Z,11.37
2019-01-27T03:45:55.747Z,11.37
2019-01-27T03:51:05.833Z,12.63
2019-01-27T03:56:13.800Z,14.37
2019-01-27T04:01:21.163Z,14.97
2019-01-27T04:06:28.806Z,16.70
2019-01-27T04:11:35.660Z,15.63
2019-01-27T04:16:47.723Z,15.20
2019-01-27T04:21:54.579Z,15.63
2019-01-27T04:27:02.458Z,12.37
2019-01-27T04:32:10.966Z,14.03
2019-01-27T04:37:18.793Z,14.17
2019-01-27T04:42:26.182Z,15.67
2019-01-27T04:47:33.779Z,14.03
2019-01-27T04:52:42.703Z,15.40
2019-01-27T04:57:50.626Z,13.50
2019-01-27T05:03:17.522Z,17.27
2019-01-27T05:08:25.042Z,16.10
2019-01-27T05:13:32.863Z,12.10
2019-01-27T05:18:39.750Z,12.03
2019-01-27T05:23:46.815Z,16.13
2019-01-27T05:28:53.903Z,17.47
2019-01-27T05:34:00.178Z,18.77
2019-01-27T05:39:09.975Z,18.40
2019-01-27T05:44:17.417Z,18.53
2019-01-27T05:49:24.479Z,21.40
2019-01-27T05:54:34.043Z,17.83
2019-01-27T05:59:43.804Z,16.83
2019-01-27T06:04:51.512Z,18.67
2019-01-27T06:09:58.285Z,18.17
2019-01-27T06:15:07.634Z,17.17
2019-01-27T06:20:14.771Z,18.23
2019-01-27T06:25:26.284Z,19.27
2019-01-27T06:30:34.865Z,17.27
2019-01-27T06:35:44.846Z,21.33
2019-01-27T06:40:55.139Z,23.00
2019-01-27T06:46:03.815Z,23.87
2019-01-27T06:51:11.282Z,24.83
2019-01-27T06:56:19.190Z,26.30
2019-01-27T07:01:44.532Z,20.57
2019-01-27T07:07:19.834Z,23.60
2019-01-27T07:12:39.038Z,25.57
2019-01-27T07:18:04.029Z,28.47
2019-01-27T07:23:30.764Z,25.30
2019-01-27T07:29:09.507Z,27.27
2019-01-27T07:34:38.736Z,25.97
2019-01-27T07:40:03.776Z,23.97
2019-01-27T07:45:36.707Z,22.87
2019-01-27T07:50:55.898Z,22.57
2019-01-27T07:56:40.377Z,24.20
2019-01-27T08:01:55.299Z,22.67
2019-01-27T08:07:16.011Z,24.63
2019-01-27T08:12:41.737Z,23.17
2019-01-27T08:18:16.613Z,23.93
2019-01-27T08:23:45.734Z,27.00
2019-01-27T08:29:15.224Z,32.27
2019-01-27T08:34:38.682Z,22.53
2019-01-27T08:40:01.444Z,24.83
2019-01-27T08:45:23.242Z,23.40
2019-01-27T08:50:30.922Z,24.00
2019-01-27T08:55:41.252Z,21.77
2019-01-27T09:00:59.252Z,17.20
2019-01-27T09:06:24.589Z,18.80
2019-01-27T09:11:49.612Z,15.63
2019-01-27T09:17:25.430Z,14.73
2019-01-27T09:22:51.780Z,12.90
2019-01-27T09:28:10.744Z,14.47
2019-01-27T09:33:40.035Z,12.60
2019-01-27T09:38:57.385Z,16.57
2019-01-27T09:44:28.251Z,10.93
2019-01-27T09:49:52.147Z,9.63
2019-01-27T09:55:20.975Z,10.43
2019-01-27T10:00:43.106Z,8.27
2019-01-27T10:06:05.996Z,8.83
2019-01-27T10:11:47.395Z,11.63
2019-01-27T10:17:16.955Z,10.83
2019-01-27T10:22:42.654Z,9.30
2019-01-27T10:28:10.375Z,8.57
2019-01-27T10:33:51.134Z,9.90
2019-01-27T10:39:28.973Z,8.93
2019-01-27T10:45:01.657Z,11.93
2019-01-27T10:50:23.161Z,12.03
2019-01-27T10:55:44.819Z,15.97
2019-01-27T11:00:58.338Z,14.53
2019-01-27T11:06:29.872Z,13.87
2019-01-27T11:11:49.066Z,12.73
2019-01-27T11:17:33.338Z,12.20
2019-01-27T11:23:02.840Z,10.83
2019-01-27T11:28:42.020Z,13.40
2019-01-27T11:34:08.251Z,12.00
2019-01-27T11:39:32.049Z,11.37
2019-01-27T11:44:54.581Z,12.07
2019-01-27T11:50:08.938Z,11.33
2019-01-27T11:55:15.394Z,14.80
2019-01-27T12:00:28.799Z,11.40
2019-01-27T12:05:34.991Z,12.60
2019-01-27T12:10:41.763Z,8.93
2019-01-27T12:15:48.018Z,10.80
2019-01-27T12:20:55.484Z,7.90
2019-01-27T12:26:03.230Z,8.53
2019-01-27T12:31:12.186Z,8.30
2019-01-27T12:36:21.121Z,7.43
2019-01-27T12:41:29.359Z,7.77
2019-01-27T12:46:38.336Z,7.77
2019-01-27T12:51:48.307Z,8.00
2019-01-27T12:56:54.734Z,7.77
2019-01-27T13:02:02.550Z,8.67
2019-01-27T13:07:21.242Z,7.10
2019-01-27T13:12:24.014Z,9.60
2019-01-27T13:17:33.904Z,7.67
2019-01-27T13:22:40.543Z,7.80
2019-01-27T13:27:49.331Z,7.60
2019-01-27T13:33:03.279Z,5.80
2019-01-27T13:38:09.674Z,7.40
2019-01-27T13:43:20.719Z,6.47
2019-01-27T13:48:29.535Z,9.73
2019-01-27T13:53:40.412Z,11.13
2019-01-27T13:58:48.249Z,6.17
2019-01-27T14:03:58.142Z,6.90
2019-01-27T14:09:07.039Z,6.87
2019-01-27T14:14:19.344Z,3.73
2019-01-27T14:19:29.015Z,5.97
2019-01-27T14:24:34.963Z,4.83
2019-01-27T14:29:42.883Z,4.27
2019-01-27T14:34:53.734Z,7.40
2019-01-27T14:40:04.824Z,3.53
2019-01-27T14:45:13.831Z,4.60
2019-01-27T14:50:28.892Z,7.13
2019-01-27T14:55:34.835Z,5.23
2019-01-27T15:00:43.781Z,6.20
2019-01-27T15:05:52.523Z,6.27
2019-01-27T15:11:01.451Z,6.37
2019-01-27T15:16:08.308Z,5.60
2019-01-27T15:21:28.599Z,5.87
2019-01-27T15:26:36.182Z,4.07
2019-01-27T15:31:44.551Z,2.00
2019-01-27T15:36:52.684Z,5.00
2019-01-27T15:42:00.523Z,1.87
2019-01-27T15:47:06.765Z,3.93
2019-01-27T15:52:16.100Z,2.10
2019-01-27T15:57:24.065Z,2.83
2019-01-27T16:02:31.956Z,3.87
2019-01-27T16:07:39.725Z,2.90
2019-01-27T16:12:46.936Z,4.47
2019-01-27T16:17:55.118Z,5.23
2019-01-27T16:23:21.870Z,3.10
2019-01-27T16:28:29.359Z,2.40
2019-01-27T16:33:50.792Z,3.83
2019-01-27T16:38:58.131Z,4.97
2019-01-27T16:44:06.454Z,7.97
2019-01-27T16:49:13.352Z,5.87
2019-01-27T16:54:19.598Z,4.57
2019-01-27T16:59:29.091Z,4.70
2019-01-27T17:04:37.155Z,2.90
2019-01-27T17:09:44.369Z,3.87
2019-01-27T17:14:55.542Z,4.10
2019-01-27T17:20:05.579Z,3.87
2019-01-27T17:25:17.270Z,3.10
2019-01-27T17:30:24.535Z,3.50
2019-01-27T17:35:32.373Z,2.90
2019-01-27T17:40:41.615Z,4.10
2019-01-27T17:45:51.582Z,3.40
2019-01-27T17:50:58.742Z,3.90
2019-01-27T17:56:06.560Z,3.57
2019-01-27T18:01:42.371Z,2.40
2019-01-27T18:07:06.500Z,2.93
2019-01-27T18:12:20.913Z,2.50
2019-01-27T18:17:28.230Z,3.50
2019-01-27T18:22:37.618Z,2.77
2019-01-27T18:27:43.898Z,3.30
2019-01-27T18:32:51.666Z,4.97
2019-01-27T18:38:00.769Z,4.30
2019-01-27T18:43:08.828Z,5.07
2019-01-27T18:48:17.832Z,4.23
2019-01-27T18:53:44.458Z,2.97
2019-01-27T18:59:14.287Z,2.23
2019-01-27T19:04:36.997Z,4.03
2019-01-27T19:10:01.893Z,5.30
2019-01-27T19:15:44.983Z,4.03
2019-01-27T19:21:14.828Z,3.03
2019-01-27T19:26:40.191Z,4.07
2019-01-27T19:32:09.219Z,2.97
2019-01-27T19:37:39.748Z,6.40
2019-01-27T19:42:54.317Z,6.27
2019-01-27T19:48:13.915Z,8.07
2019-01-27T19:53:56.523Z,3.10
2019-01-27T19:59:29.389Z,6.80
2019-01-27T20:04:52.011Z,7.80
2019-01-27T20:10:36.186Z,6.57
2019-01-27T20:15:52.684Z,9.27
2019-01-27T20:21:17.382Z,4.53
2019-01-27T20:26:55.135Z,4.07
2019-01-27T20:32:20.141Z,6.30
2019-01-27T20:37:45.255Z,6.63
2019-01-27T20:43:09.344Z,4.80
2019-01-27T20:48:35.451Z,8.20
2019-01-27T20:54:08.338Z,5.73
2019-01-27T20:59:42.359Z,6.20
2019-01-27T21:05:14.896Z,7.53
2019-01-27T21:10:44.691Z,10.67
2019-01-27T21:16:02.803Z,7.23
2019-01-27T21:21:09.306Z,5.10
2019-01-27T21:26:17.018Z,4.20
2019-01-27T21:31:23.984Z,6.50
2019-01-27T21:36:33.111Z,5.90
2019-01-27T21:41:43.265Z,4.43
2019-01-27T21:46:50.459Z,4.07
2019-01-27T21:51:57.612Z,5.13
2019-01-27T21:57:07.165Z,8.00
2019-01-27T22:02:14.155Z,3.37
2019-01-27T22:07:23.820Z,4.63
2019-01-27T22:12:31.656Z,4.27
2019-01-27T22:17:38.006Z,5.20
2019-01-27T22:22:46.631Z,7.22
2019-01-27T22:27:54.403Z,4.57
2019-01-27T22:33:01.115Z,7.07
2019-01-27T22:38:08.760Z,3.87
2019-01-27T22:43:16.714Z,7.30
2019-01-27T22:48:24.039Z,6.13
2019-01-27T22:53:31.126Z,5.03
2019-01-27T22:58:38.902Z,8.43
2019-01-27T23:03:51.425Z,5.50
2019-01-27T23:08:57.964Z,4.73
2019-01-27T23:14:04.817Z,5.10
2019-01-27T23:19:12.738Z,6.80
2019-01-27T23:24:19.785Z,5.63
2019-01-27T23:29:25.994Z,4.23
2019-01-27T23:34:35.463Z,6.60
2019-01-27T23:39:43.314Z,5.83
2019-01-27T23:44:52.217Z,3.50
2019-01-27T23:49:58.836Z,4.17
2019-01-27T23:55:06.724Z,3.10
